Time;durP1;ratioP1;P1;durP2;ratioP2;P2;SDS_P1;SDS_P2;PMS_P1;PMS_P2;Temp;Humidity;BMP_temperature;BMP_pressure;BME280_temperature;BME280_humidity;BME280_pressure;Samples;Min_cycle;Max_cycle;Signal;HPM_P1;HPM_P2
2022/12/12 00:02:01;;;;;;;40.55;22.45;;;-0.30;99.90;;;;;;6237543;23;20021;-81
2022/12/12 00:04:26;;;;;;;35.05;20.40;;;0.20;99.90;;;;;;6236555;23;20008;-81
2022/12/12 00:06:52;;;;;;;35.58;19.92;;;0.00;99.90;;;;;;6210055;23;20040;-80
2022/12/12 00:12:59;;;;;;;38.70;20.63;;;0.10;99.90;;;;;;6239058;23;20015;-78
2022/12/12 00:15:26;;;;;;;37.33;20.63;;;0.00;99.90;;;;;;6208068;23;20020;-80
2022/12/12 00:17:52;;;;;;;40.78;20.58;;;0.20;99.90;;;;;;6205884;23;20016;-78
2022/12/12 00:20:18;;;;;;;35.95;20.23;;;-0.10;99.90;;;;;;6231815;23;20020;-80
2022/12/12 00:22:44;;;;;;;37.78;20.73;;;-0.10;99.90;;;;;;6234512;23;20012;-80
2022/12/12 00:28:51;;;;;;;39.70;20.42;;;0.00;99.90;;;;;;6227932;23;20030;-81
2022/12/12 00:31:17;;;;;;;35.95;20.55;;;0.10;99.90;;;;;;6225992;23;20075;-81
2022/12/12 00:33:45;;;;;;;37.45;20.20;;;0.00;99.90;;;;;;6202514;23;20060;-79
2022/12/12 00:36:11;;;;;;;40.80;20.35;;;0.10;99.90;;;;;;6200955;23;20012;-80
2022/12/12 00:38:36;;;;;;;35.58;19.88;;;0.00;99.90;;;;;;6227150;23;20031;-80
2022/12/12 00:41:02;;;;;;;35.63;20.08;;;0.20;99.90;;;;;;6225734;23;20082;-81
2022/12/12 00:43:28;;;;;;;38.42;20.17;;;0.00;99.90;;;;;;6225788;23;20098;-79
2022/12/12 00:45:56;;;;;;;38.13;20.10;;;0.10;99.90;;;;;;6227106;23;20107;-80
2022/12/12 00:48:22;;;;;;;36.78;20.27;;;0.00;99.90;;;;;;6199567;23;20020;-81
2022/12/12 00:50:48;;;;;;;38.08;20.75;;;0.10;99.90;;;;;;6216164;23;20012;-80
2022/12/12 00:53:14;;;;;;;36.10;19.83;;;0.00;99.90;;;;;;6198260;23;20012;-79
2022/12/12 00:55:39;;;;;;;34.88;19.60;;;0.00;99.90;;;;;;6218037;23;20013;-78
2022/12/12 00:58:05;;;;;;;38.05;21.13;;;-0.10;99.90;;;;;;6222546;23;20061;-81
2022/12/12 01:00:31;;;;;;;35.15;20.80;;;0.00;99.90;;;;;;6203007;23;20051;-83
2022/12/12 01:02:58;;;;;;;36.50;20.08;;;-0.10;99.90;;;;;;6220808;23;20035;-81
2022/12/12 01:05:24;;;;;;;37.90;19.75;;;-0.10;99.90;;;;;;6228605;23;20023;-81
2022/12/12 01:07:50;;;;;;;35.17;19.67;;;-0.20;99.90;;;;;;6234805;23;20090;-80
2022/12/12 01:13:57;;;;;;;32.97;19.15;;;0.20;99.90;;;;;;6230418;23;20007;-82
2022/12/12 01:16:23;;;;;;;34.10;19.17;;;0.20;99.90;;;;;;6225265;23;20013;-83
2022/12/12 01:18:49;;;;;;;36.45;20.15;;;0.20;99.90;;;;;;6223402;23;20412;-81
2022/12/12 01:21:16;;;;;;;34.25;18.77;;;0.20;99.90;;;;;;6221885;23;20072;-80
2022/12/12 01:23:42;;;;;;;36.10;20.00;;;-0.10;99.90;;;;;;6203876;23;20012;-79
2022/12/12 01:29:49;;;;;;;35.80;18.08;;;0.00;99.90;;;;;;6224532;23;20015;-80
2022/12/12 01:32:15;;;;;;;34.20;20.08;;;0.10;99.90;;;;;;6199801;23;20017;-79
2022/12/12 01:34:42;;;;;;;35.05;18.48;;;0.00;99.90;;;;;;6229282;23;20021;-79
2022/12/12 01:37:07;;;;;;;34.22;19.27;;;0.30;99.90;;;;;;6225964;23;20070;-80
2022/12/12 01:39:33;;;;;;;32.72;19.42;;;0.20;99.90;;;;;;6228003;23;20012;-80
2022/12/12 01:41:59;;;;;;;33.30;19.02;;;0.00;99.90;;;;;;6227728;23;20039;-81
2022/12/12 01:44:44;;;;;;;33.55;19.45;;;0.30;99.90;;;;;;6227598;23;20108;-79
2022/12/12 01:47:12;;;;;;;33.30;18.55;;;0.00;99.90;;;;;;6204730;23;20016;-80
2022/12/12 01:49:38;;;;;;;35.67;19.10;;;0.10;99.90;;;;;;6230331;23;20020;-79
2022/12/12 01:52:09;;;;;;;32.90;18.83;;;0.20;99.90;;;;;;6231022;23;20024;-80
2022/12/12 01:54:39;;;;;;;35.35;18.65;;;0.20;99.90;;;;;;6204053;23;20008;-79
2022/12/12 01:57:09;;;;;;;31.95;18.30;;;0.20;99.90;;;;;;6230114;23;20020;-81
2022/12/12 01:59:37;;;;;;;35.03;19.10;;;0.20;99.90;;;;;;6204529;23;20154;-80
2022/12/12 02:02:04;;;;;;;34.70;18.10;;;0.00;99.90;;;;;;6204742;23;20012;-80
2022/12/12 02:04:30;;;;;;;34.55;18.30;;;0.10;99.90;;;;;;6230157;23;20012;-81
2022/12/12 02:06:56;;;;;;;36.75;19.75;;;-0.10;99.90;;;;;;6203825;23;20036;-80
2022/12/12 02:10:00;;;;;;;34.20;19.23;;;0.20;99.90;;;;;;6203634;23;20013;-80
2022/12/12 02:12:25;;;;;;;36.47;19.00;;;0.10;99.90;;;;;;6204192;23;20290;-81
2022/12/12 02:14:52;;;;;;;34.38;18.83;;;0.20;99.90;;;;;;6203035;23;20008;-79
2022/12/12 02:17:36;;;;;;;34.78;19.58;;;-0.10;99.90;;;;;;6203226;23;20013;-80
2022/12/12 02:20:17;;;;;;;36.50;19.00;;;0.00;99.90;;;;;;6229824;23;20012;-81
2022/12/12 02:23:13;;;;;;;35.65;19.08;;;0.10;99.90;;;;;;6179108;23;20012;-80
2022/12/12 02:26:00;;;;;;;30.98;17.77;;;0.00;99.90;;;;;;6203168;23;20013;-81
2022/12/12 02:28:40;;;;;;;35.13;19.13;;;-0.10;99.90;;;;;;6230296;23;20016;-81
2022/12/12 02:31:15;;;;;;;37.40;19.13;;;0.10;99.90;;;;;;6178557;23;20025;-80
2022/12/12 02:33:59;;;;;;;;;;;0.10;99.90;;;;;;6204153;23;20012;-81
2022/12/12 02:36:38;;;;;;;35.53;19.30;;;0.10;99.90;;;;;;6199986;23;19916;-80
2022/12/12 02:39:18;;;;;;;40.50;18.40;;;0.00;99.90;;;;;;6199277;23;20016;-84
2022/12/12 02:41:54;;;;;;;35.10;17.65;;;0.00;99.90;;;;;;6178649;23;20044;-79
2022/12/12 02:44:38;;;;;;;33.10;18.33;;;0.00;99.90;;;;;;6178308;23;20016;-81
2022/12/12 02:47:25;;;;;;;36.63;19.43;;;0.10;99.90;;;;;;6231693;23;20040;-81
2022/12/12 02:49:57;;;;;;;34.05;18.10;;;0.00;99.90;;;;;;6209013;23;20248;-81
2022/12/12 02:52:23;;;;;;;35.72;19.05;;;0.10;99.90;;;;;;6224399;23;20126;-80
2022/12/12 02:54:49;;;;;;;32.50;17.83;;;0.10;99.90;;;;;;6219421;23;20052;-82
2022/12/12 02:57:21;;;;;;;33.30;18.95;;;0.10;99.90;;;;;;6224273;23;20024;-81
2022/12/12 03:00:05;;;;;;;34.85;18.83;;;0.00;99.90;;;;;;6225649;23;20027;-80
2022/12/12 03:02:50;;;;;;;33.70;17.90;;;0.10;99.90;;;;;;6212153;23;20000;-81
2022/12/12 03:16:05;;;;;;;34.08;18.17;;;0.00;99.90;;;;;;6234503;23;20160;-81
2022/12/12 03:18:50;;;;;;;32.30;18.33;;;0.00;99.90;;;;;;6206949;23;20084;-80
2022/12/12 03:21:50;;;;;;;32.22;18.38;;;-0.10;99.90;;;;;;6205298;23;20013;-82
2022/12/12 03:24:49;;;;;;;34.17;18.33;;;0.00;99.90;;;;;;6231380;23;20020;-80
2022/12/12 03:27:27;;;;;;;33.10;18.35;;;-0.10;99.90;;;;;;6231574;23;20040;-81
2022/12/12 03:30:02;;;;;;;33.70;17.77;;;0.10;99.90;;;;;;6232482;23;20012;-81
2022/12/12 03:32:32;;;;;;;;;;;0.00;99.90;;;;;;6231707;23;20395;-82
2022/12/12 03:35:05;;;;;;;34.92;18.33;;;-0.10;99.90;;;;;;6228519;23;19923;-81
2022/12/12 03:37:36;;;;;;;33.85;18.35;;;0.00;99.90;;;;;;6204046;23;20047;-80
2022/12/12 03:43:52;;;;;;;33.25;18.30;;;-0.10;99.90;;;;;;6231424;23;20027;-80
2022/12/12 03:46:23;;;;;;;29.92;17.40;;;-0.10;99.90;;;;;;6229304;23;20049;-81
2022/12/12 03:49:06;;;;;;;33.90;18.80;;;-0.20;99.90;;;;;;6236623;23;20027;-81
2022/12/12 03:51:54;;;;;;;33.17;18.33;;;0.10;99.90;;;;;;6213214;23;20046;-81
2022/12/12 03:54:30;;;;;;;36.03;17.48;;;0.20;99.90;;;;;;6210812;23;20031;-82
2022/12/12 03:57:30;;;;;;;30.80;17.85;;;0.00;99.90;;;;;;6235936;23;20024;-81
2022/12/12 04:00:09;;;;;;;31.27;17.75;;;-0.10;99.90;;;;;;6235387;23;20027;-81
2022/12/12 04:02:50;;;;;;;28.38;17.20;;;-0.10;99.90;;;;;;6209425;23;20016;-82
2022/12/12 04:08:36;;;;;;;33.13;18.02;;;-0.20;99.90;;;;;;6234388;23;20028;-82
2022/12/12 04:15:02;;;;;;;31.10;16.58;;;0.10;99.90;;;;;;6238879;23;20068;-80
2022/12/12 04:17:39;;;;;;;31.27;17.27;;;-0.10;99.90;;;;;;6238572;23;20016;-82
2022/12/12 04:23:17;;;;;;;33.45;18.73;;;0.00;99.90;;;;;;6265416;23;20019;-80
2022/12/12 04:29:59;;;;;;;31.80;16.80;;;-0.10;99.90;;;;;;6261532;23;20027;-80
2022/12/12 04:32:39;;;;;;;31.35;16.98;;;0.00;99.90;;;;;;6082989;23;20026;-81
2022/12/12 04:35:13;;;;;;;29.35;16.98;;;0.10;99.90;;;;;;6081552;23;20022;-81
2022/12/12 04:37:46;;;;;;;31.10;16.80;;;-0.10;99.90;;;;;;6087791;23;20055;-81
2022/12/12 04:44:00;;;;;;;30.85;17.25;;;0.10;99.90;;;;;;6110951;23;20032;-81
2022/12/12 04:46:28;;;;;;;30.20;17.85;;;0.10;99.90;;;;;;6086905;23;20019;-81
2022/12/12 04:48:59;;;;;;;31.85;17.95;;;0.00;99.90;;;;;;6078715;23;20019;-84
2022/12/12 04:51:30;;;;;;;30.23;17.52;;;0.10;99.90;;;;;;6098108;23;20050;-81
2022/12/12 04:54:08;;;;;;;35.97;17.52;;;0.00;99.90;;;;;;6105209;23;20018;-83
2022/12/12 04:56:36;;;;;;;33.47;18.10;;;0.10;99.90;;;;;;6107016;23;20082;-81
2022/12/12 04:59:03;;;;;;;32.55;17.10;;;0.00;99.90;;;;;;6095246;23;20010;-81
2022/12/12 05:01:47;;;;;;;31.35;17.13;;;0.10;99.90;;;;;;6070545;23;20011;-81
2022/12/12 05:04:21;;;;;;;29.70;17.08;;;-0.10;99.90;;;;;;6111602;23;20052;-82
2022/12/12 05:06:52;;;;;;;29.70;17.20;;;-0.10;99.90;;;;;;6152103;23;20060;-81
2022/12/12 05:09:19;;;;;;;29.73;16.98;;;0.00;99.90;;;;;;6206157;23;20082;-81
2022/12/12 05:12:40;;;;;;;31.30;17.38;;;0.00;99.90;;;;;;6206833;23;20012;-81
2022/12/12 05:15:07;;;;;;;30.50;16.58;;;-0.10;99.90;;;;;;6180313;23;20013;-82
2022/12/12 05:17:41;;;;;;;32.47;17.05;;;-0.10;99.90;;;;;;6205909;23;20023;-82
2022/12/12 05:20:08;;;;;;;33.08;17.60;;;0.00;99.90;;;;;;6180744;23;20032;-81
2022/12/12 05:22:34;;;;;;;31.23;17.35;;;-0.10;99.90;;;;;;6181373;23;20016;-82
2022/12/12 05:28:41;;;;;;;31.35;16.85;;;-0.10;99.90;;;;;;6223443;23;20126;-81
2022/12/12 05:31:07;;;;;;;27.40;16.77;;;-0.10;99.90;;;;;;6204151;23;20013;-81
2022/12/12 05:33:32;;;;;;;32.35;17.10;;;-0.10;99.90;;;;;;6205569;23;20012;-81
2022/12/12 05:35:58;;;;;;;33.63;17.42;;;0.00;99.90;;;;;;6205614;23;20013;-81
2022/12/12 05:38:24;;;;;;;30.38;17.20;;;-0.10;99.90;;;;;;6184820;23;20017;-82
2022/12/12 05:41:14;;;;;;;30.85;17.05;;;-0.10;99.90;;;;;;6207350;23;20055;-81
2022/12/12 05:43:40;;;;;;;31.00;17.42;;;0.00;99.90;;;;;;6182627;23;20040;-80
2022/12/12 05:46:06;;;;;;;29.42;17.55;;;-0.20;99.90;;;;;;6181395;23;20032;-81
2022/12/12 05:48:32;;;;;;;31.00;17.35;;;0.00;99.90;;;;;;6205684;23;20080;-81
2022/12/12 05:51:00;;;;;;;33.25;17.45;;;-0.10;99.90;;;;;;6233068;23;20087;-82
2022/12/12 05:53:26;;;;;;;32.58;17.17;;;-0.10;99.90;;;;;;6181974;23;20016;-79
2022/12/12 05:59:34;;;;;;;32.33;17.00;;;-0.20;99.90;;;;;;6233554;23;20088;-81
2022/12/12 06:02:00;;;;;;;31.15;17.63;;;0.00;99.90;;;;;;6178024;23;20012;-80
2022/12/12 06:04:25;;;;;;;33.40;17.58;;;-0.10;99.90;;;;;;6200869;23;20013;-81
2022/12/12 06:06:51;;;;;;;28.88;16.38;;;0.00;99.90;;;;;;6200240;23;20039;-81
2022/12/12 06:09:17;;;;;;;27.35;15.95;;;0.00;99.90;;;;;;6205605;23;20115;-81
2022/12/12 06:15:24;;;;;;;32.38;18.08;;;0.00;99.90;;;;;;6225991;23;20008;-81
2022/12/12 06:17:50;;;;;;;30.88;16.73;;;0.00;99.90;;;;;;6196454;23;20034;-79
2022/12/12 06:20:18;;;;;;;30.15;17.05;;;0.00;99.90;;;;;;6175810;23;20021;-81
2022/12/12 06:22:43;;;;;;;30.35;17.60;;;-0.10;99.90;;;;;;6177846;23;20016;-81
2022/12/12 06:25:09;;;;;;;31.73;17.77;;;-0.20;99.90;;;;;;6194954;23;20083;-83
2022/12/12 06:27:35;;;;;;;30.63;16.25;;;-0.20;99.90;;;;;;6203235;23;20024;-82
2022/12/12 06:30:02;;;;;;;30.13;17.33;;;-0.20;99.90;;;;;;6205910;23;20132;-82
2022/12/12 06:32:28;;;;;;;30.15;17.00;;;0.00;99.90;;;;;;6184441;23;20047;-81
2022/12/12 06:34:53;;;;;;;29.23;16.75;;;-0.10;99.90;;;;;;6212624;23;20000;-82
2022/12/12 06:37:20;;;;;;;30.20;16.92;;;-0.10;99.90;;;;;;6210632;23;20087;-81
2022/12/12 06:39:45;;;;;;;32.00;17.42;;;-0.20;99.90;;;;;;6183589;23;20498;-81
2022/12/12 06:46:00;;;;;;;28.75;16.08;;;-0.20;99.90;;;;;;6228449;23;20023;-82
2022/12/12 06:48:25;;;;;;;29.40;16.65;;;-0.10;99.90;;;;;;6209383;23;20076;-82
2022/12/12 06:50:51;;;;;;;29.08;17.20;;;-0.20;99.90;;;;;;6224854;23;20020;-80
2022/12/12 06:53:16;;;;;;;31.85;17.40;;;-0.10;99.90;;;;;;6213911;23;20019;-80
2022/12/12 06:59:23;;;;;;;32.22;17.50;;;-0.30;99.90;;;;;;6231041;23;20018;-80
2022/12/12 07:01:49;;;;;;;28.80;16.58;;;-0.20;99.90;;;;;;6228546;23;20017;-82
2022/12/12 07:04:15;;;;;;;34.58;17.70;;;-0.30;99.90;;;;;;6204116;23;20021;-82
2022/12/12 07:06:41;;;;;;;30.27;16.65;;;-0.20;99.90;;;;;;6229606;23;20048;-79
2022/12/12 07:09:07;;;;;;;29.35;16.88;;;-0.10;99.90;;;;;;6202730;23;20087;-81
2022/12/12 07:11:32;;;;;;;30.35;16.90;;;-0.20;99.90;;;;;;6204565;23;20024;-79
2022/12/12 07:14:00;;;;;;;32.17;18.73;;;-0.30;99.90;;;;;;6231909;23;20036;-80
2022/12/12 07:16:26;;;;;;;32.60;17.80;;;-0.30;99.90;;;;;;6228895;23;20016;-79
2022/12/12 07:18:51;;;;;;;36.55;18.67;;;-0.20;99.90;;;;;;6204118;23;20019;-81
2022/12/12 07:21:19;;;;;;;36.25;19.23;;;-0.20;99.90;;;;;;6230498;23;20012;-80
2022/12/12 07:23:45;;;;;;;39.22;20.50;;;-0.30;99.90;;;;;;6235090;23;20012;-79
2022/12/12 07:26:19;;;;;;;36.78;19.73;;;-0.20;99.90;;;;;;6211483;23;20032;-80
2022/12/12 07:28:45;;;;;;;35.67;19.40;;;-0.30;99.90;;;;;;6235422;23;20436;-83
2022/12/12 07:31:13;;;;;;;33.90;18.33;;;-0.30;99.90;;;;;;6226117;23;20451;-83
2022/12/12 07:33:40;;;;;;;25.38;16.40;;;-0.10;99.90;;;;;;6195489;23;20008;-81
2022/12/12 07:36:06;;;;;;;30.60;17.52;;;-0.10;99.90;;;;;;6226181;23;20016;-83
2022/12/12 07:38:32;;;;;;;33.85;17.83;;;-0.10;99.90;;;;;;6211122;23;20072;-81
2022/12/12 07:44:57;;;;;;;31.55;18.50;;;-0.10;99.90;;;;;;6237732;23;20031;-79
2022/12/12 07:47:23;;;;;;;34.88;19.40;;;0.00;99.90;;;;;;6238891;23;20072;-80
2022/12/12 07:49:49;;;;;;;29.83;17.00;;;0.00;99.90;;;;;;6209565;23;20017;-81
2022/12/12 07:52:14;;;;;;;31.08;17.52;;;-0.10;99.90;;;;;;6227961;23;20433;-80
2022/12/12 07:54:40;;;;;;;35.03;19.13;;;0.00;99.90;;;;;;6221152;23;20044;-82
2022/12/12 07:57:45;;;;;;;34.67;18.45;;;-0.10;99.90;;;;;;6222346;23;20420;-82
2022/12/12 08:00:14;;;;;;;33.17;18.63;;;0.00;99.90;;;;;;6229723;23;20043;-81
2022/12/12 08:02:40;;;;;;;34.95;19.35;;;0.00;99.90;;;;;;6186237;23;20004;-81
2022/12/12 08:05:06;;;;;;;31.52;18.42;;;0.00;99.90;;;;;;6213227;23;20028;-84
2022/12/12 08:07:32;;;;;;;33.17;18.25;;;-0.10;99.90;;;;;;6211938;23;20017;-83
2022/12/12 08:09:58;;;;;;;39.03;20.52;;;-0.10;99.90;;;;;;6210982;23;20020;-83
2022/12/12 08:12:27;;;;;;;39.50;20.65;;;0.00;99.90;;;;;;6210789;23;20005;-78
2022/12/12 08:14:52;;;;;;;31.48;17.83;;;0.00;99.90;;;;;;6238463;23;20017;-82
2022/12/12 08:17:18;;;;;;;36.15;17.90;;;-0.20;99.90;;;;;;6241257;23;20022;-81
2022/12/12 08:19:43;;;;;;;30.48;18.00;;;-0.10;99.90;;;;;;6239629;23;20011;-77
2022/12/12 08:22:09;;;;;;;31.85;17.90;;;-0.20;99.90;;;;;;6239605;23;20019;-80
2022/12/12 08:24:35;;;;;;;31.50;18.58;;;-0.10;99.90;;;;;;6213877;23;20020;-80
2022/12/12 08:27:01;;;;;;;31.27;17.90;;;-0.20;99.90;;;;;;6214264;23;20008;-80
2022/12/12 08:29:26;;;;;;;30.40;17.40;;;0.00;99.90;;;;;;6238982;23;20041;-83
2022/12/12 08:31:52;;;;;;;30.85;17.58;;;-0.10;99.90;;;;;;6211284;23;20055;-82
2022/12/12 08:34:18;;;;;;;30.02;17.20;;;0.00;99.90;;;;;;6212864;23;20023;-80
2022/12/12 08:36:45;;;;;;;30.45;17.65;;;0.00;99.90;;;;;;6235756;23;20016;-80
2022/12/12 08:39:14;;;;;;;30.77;17.98;;;-0.10;99.90;;;;;;6210617;23;20114;-82
2022/12/12 08:41:42;;;;;;;30.80;18.63;;;0.10;99.90;;;;;;6235824;23;20028;-81
2022/12/12 08:44:11;;;;;;;29.52;17.77;;;-0.10;99.90;;;;;;6206540;23;20016;-83
2022/12/12 08:46:37;;;;;;;30.95;18.05;;;0.20;99.90;;;;;;6235715;23;20053;-80
2022/12/12 08:49:03;;;;;;;28.48;16.95;;;0.00;99.90;;;;;;6237275;23;20016;-81
2022/12/12 08:51:29;;;;;;;39.90;21.50;;;0.00;99.90;;;;;;6239639;23;20016;-80
2022/12/12 08:53:55;;;;;;;38.95;19.67;;;0.00;99.90;;;;;;6213316;23;20024;-81
2022/12/12 08:56:22;;;;;;;31.48;18.75;;;0.10;99.90;;;;;;6215888;23;20004;-81
2022/12/12 08:58:49;;;;;;;41.58;21.67;;;0.10;99.90;;;;;;6240711;23;20043;-84
2022/12/12 09:01:19;;;;;;;34.92;18.70;;;0.20;99.90;;;;;;6215337;23;20016;-81
2022/12/12 09:03:46;;;;;;;34.15;19.75;;;0.10;99.90;;;;;;6238331;23;20008;-81
2022/12/12 09:06:13;;;;;;;35.00;18.42;;;0.20;99.90;;;;;;6238395;23;20009;-82
2022/12/12 09:08:40;;;;;;;34.00;19.35;;;0.20;99.90;;;;;;6240834;23;20025;-79
2022/12/12 09:11:07;;;;;;;36.13;19.90;;;0.40;99.90;;;;;;6213508;23;20425;-82
2022/12/12 09:13:34;;;;;;;35.45;19.50;;;0.30;99.90;;;;;;6212000;23;20139;-83
2022/12/12 09:15:59;;;;;;;36.58;20.75;;;0.30;99.90;;;;;;6238142;23;20047;-79
2022/12/12 09:18:26;;;;;;;33.88;19.40;;;0.20;99.90;;;;;;6232138;23;20020;-82
2022/12/12 09:20:54;;;;;;;30.42;18.02;;;0.30;99.90;;;;;;6230979;23;20404;-80
2022/12/12 09:23:21;;;;;;;42.45;22.90;;;0.30;99.90;;;;;;6233433;23;20060;-80
2022/12/12 09:25:47;;;;;;;36.60;20.60;;;0.30;99.90;;;;;;6231413;23;20012;-78
2022/12/12 09:28:15;;;;;;;38.97;21.27;;;0.30;99.90;;;;;;6233594;23;20012;-80
2022/12/12 09:30:41;;;;;;;31.42;18.55;;;0.30;99.90;;;;;;6229992;23;20020;-80
2022/12/12 09:33:08;;;;;;;30.48;19.40;;;0.40;99.90;;;;;;6229407;23;20047;-80
2022/12/12 09:35:33;;;;;;;33.67;18.48;;;0.30;99.90;;;;;;6231089;23;20095;-81
2022/12/12 09:38:03;;;;;;;28.67;18.30;;;0.40;99.90;;;;;;6232311;23;20017;-82
2022/12/12 09:40:59;;;;;;;29.42;18.05;;;0.40;99.90;;;;;;6183087;23;20106;-80
2022/12/12 09:43:37;;;;;;;30.23;17.13;;;0.40;99.90;;;;;;6231408;23;20027;-81
2022/12/12 09:46:31;;;;;;;28.35;16.88;;;0.30;99.90;;;;;;6209947;23;20004;-83
2022/12/12 09:49:26;;;;;;;27.90;16.73;;;0.30;99.90;;;;;;6224958;23;20024;-81
2022/12/12 09:51:54;;;;;;;28.95;17.27;;;0.20;99.90;;;;;;6189082;23;20072;-81
2022/12/12 09:54:27;;;;;;;26.73;16.60;;;0.40;99.90;;;;;;6211635;23;20378;-85
2022/12/12 09:57:15;;;;;;;27.48;17.15;;;0.30;99.90;;;;;;6160316;23;20047;-81
2022/12/12 09:59:56;;;;;;;29.08;17.65;;;0.40;99.90;;;;;;6211663;23;20091;-80
2022/12/12 10:02:39;;;;;;;28.27;16.95;;;0.50;99.90;;;;;;6213847;23;20055;-81
2022/12/12 10:05:29;;;;;;;26.50;15.93;;;0.40;99.90;;;;;;6214202;23;20008;-81
2022/12/12 10:08:05;;;;;;;28.52;17.15;;;0.40;99.90;;;;;;6236080;23;20005;-80
2022/12/12 10:10:35;;;;;;;28.95;16.85;;;0.50;99.90;;;;;;6187736;23;20016;-82
2022/12/12 10:16:43;;;;;;;27.27;16.60;;;0.50;99.90;;;;;;6238771;23;20050;-80
2022/12/12 10:19:31;;;;;;;28.65;16.67;;;0.50;99.90;;;;;;6187482;23;20013;-81
2022/12/12 10:22:15;;;;;;;27.65;16.63;;;0.50;99.90;;;;;;6208371;23;20132;-81
2022/12/12 10:24:51;;;;;;;27.58;16.23;;;0.60;99.90;;;;;;6212120;23;20019;-81
2022/12/12 10:31:16;;;;;;;25.67;15.13;;;0.70;99.90;;;;;;6239086;23;20065;-80
2022/12/12 10:33:48;;;;;;;26.50;15.50;;;0.60;99.90;;;;;;6212647;23;20023;-79
2022/12/12 10:36:21;;;;;;;22.25;14.68;;;0.60;99.90;;;;;;6175481;23;20036;-82
2022/12/12 10:39:08;;;;;;;27.63;16.45;;;0.60;99.90;;;;;;6203417;23;20028;-81
2022/12/12 10:42:14;;;;;;;25.55;16.05;;;0.60;99.90;;;;;;6176814;23;20024;-80
2022/12/12 10:44:39;;;;;;;;;;;0.60;99.90;;;;;;6039862;23;20022;-80
2022/12/12 10:47:08;;;;;;;25.35;15.30;;;0.60;99.90;;;;;;6062516;23;19906;-81
2022/12/12 10:49:34;;;;;;;24.25;15.43;;;0.70;99.90;;;;;;6077110;23;20006;-83
2022/12/12 10:52:05;;;;;;;26.20;16.30;;;0.70;99.90;;;;;;6090747;23;20019;-79
2022/12/12 10:54:38;;;;;;;26.60;15.20;;;0.70;99.90;;;;;;6066081;23;20546;-80
2022/12/12 10:57:46;;;;;;;26.95;15.98;;;0.60;99.90;;;;;;6089560;23;20007;-82
2022/12/12 11:00:23;;;;;;;25.90;15.32;;;0.70;99.90;;;;;;6090909;23;20050;-81
2022/12/12 11:02:49;;;;;;;25.25;16.58;;;0.80;99.90;;;;;;6089128;23;20455;-83
2022/12/12 11:05:22;;;;;;;25.40;15.18;;;0.70;99.90;;;;;;6085559;23;20063;-80
2022/12/12 11:08:05;;;;;;;30.42;15.63;;;0.70;99.90;;;;;;6084388;23;20114;-81
2022/12/12 11:10:34;;;;;;;27.15;16.40;;;0.80;99.90;;;;;;6086550;23;20117;-80
2022/12/12 11:13:20;;;;;;;23.98;15.80;;;0.90;99.90;;;;;;6060597;23;20026;-81
2022/12/12 11:16:00;;;;;;;26.45;16.27;;;0.90;99.90;;;;;;6084348;23;20027;-80
2022/12/12 11:18:28;;;;;;;27.63;16.75;;;1.00;99.90;;;;;;6083379;23;20070;-80
2022/12/12 11:21:09;;;;;;;27.05;17.30;;;1.00;99.90;;;;;;6167863;23;20023;-81
2022/12/12 11:23:48;;;;;;;27.92;17.50;;;1.00;99.90;;;;;;6231514;23;20046;-81
2022/12/12 11:26:19;;;;;;;25.00;15.98;;;1.10;99.90;;;;;;6158534;23;20040;-81
2022/12/12 11:32:41;;;;;;;28.63;16.98;;;1.00;99.90;;;;;;6232473;23;20015;-81
2022/12/12 11:35:21;;;;;;;25.00;15.30;;;1.10;99.90;;;;;;6229396;23;20008;-82
2022/12/12 11:37:52;;;;;;;27.02;16.33;;;1.10;99.90;;;;;;6206912;23;20040;-82
2022/12/12 11:40:28;;;;;;;22.70;15.10;;;1.10;99.90;;;;;;6230384;23;20013;-80
2022/12/12 11:43:15;;;;;;;26.73;16.60;;;1.00;99.90;;;;;;6206282;23;20067;-81
2022/12/12 11:45:41;;;;;;;25.52;16.42;;;1.10;99.90;;;;;;6180558;23;20418;-81
2022/12/12 11:48:35;;;;;;;22.85;15.30;;;1.10;99.90;;;;;;6207280;23;20008;-81
2022/12/12 11:51:03;;;;;;;25.20;15.48;;;1.10;99.90;;;;;;6206312;23;20023;-81
2022/12/12 11:53:32;;;;;;;23.15;15.73;;;1.20;99.90;;;;;;6234471;23;20016;-82
2022/12/12 11:56:13;;;;;;;22.50;14.88;;;1.30;99.90;;;;;;6259553;23;20015;-81
2022/12/12 11:58:45;;;;;;;23.02;14.88;;;1.20;99.90;;;;;;6228995;23;20073;-82
2022/12/12 12:01:29;;;;;;;22.45;14.85;;;1.20;99.90;;;;;;6224096;23;20016;-81
2022/12/12 12:04:14;;;;;;;23.35;14.75;;;1.30;99.90;;;;;;6252682;23;20107;-82
2022/12/12 12:06:52;;;;;;;22.25;14.55;;;1.30;99.90;;;;;;6200757;23;20024;-80
2022/12/12 12:09:25;;;;;;;21.88;15.65;;;1.30;99.90;;;;;;6222013;23;20030;-80
2022/12/12 12:12:05;;;;;;;24.40;15.57;;;1.30;99.90;;;;;;6196714;23;20016;-81
2022/12/12 12:15:17;;;;;;;26.58;16.02;;;1.30;99.90;;;;;;6254181;23;20042;-82
2022/12/12 12:18:00;;;;;;;27.95;16.30;;;1.40;99.90;;;;;;6046395;23;20324;-82
2022/12/12 12:20:50;;;;;;;27.25;15.52;;;1.40;99.90;;;;;;6072431;23;20018;-81
2022/12/12 12:23:29;;;;;;;20.65;13.20;;;1.40;99.90;;;;;;6096074;23;20435;-83
2022/12/12 12:26:30;;;;;;;22.35;14.73;;;1.40;99.90;;;;;;6070545;23;20110;-80
2022/12/12 12:29:07;;;;;;;23.27;14.20;;;1.30;99.90;;;;;;5957733;24;20024;-81
2022/12/12 12:32:05;;;;;;;22.85;14.18;;;1.40;99.90;;;;;;5985961;24;20135;-81
2022/12/12 12:34:52;;;;;;;23.52;15.40;;;1.40;99.90;;;;;;5904321;24;20017;-82
2022/12/12 12:37:33;;;;;;;20.98;13.65;;;1.40;99.90;;;;;;5927741;23;20048;-81
2022/12/12 12:40:04;;;;;;;22.77;14.35;;;1.40;99.90;;;;;;5903651;24;20045;-82
2022/12/12 12:42:48;;;;;;;23.23;14.80;;;1.30;99.90;;;;;;5925898;24;20017;-82
2022/12/12 12:45:35;;;;;;;22.30;14.55;;;1.30;99.90;;;;;;5924762;24;20021;-80
2022/12/12 12:48:18;;;;;;;21.80;14.45;;;1.30;99.90;;;;;;5905265;24;20028;-83
2022/12/12 12:51:27;;;;;;;22.52;14.32;;;1.30;99.90;;;;;;5956206;23;20026;-82
2022/12/12 12:54:16;;;;;;;22.30;14.27;;;1.20;99.90;;;;;;5986066;24;20022;-82
2022/12/12 13:04:05;;;;;;;19.90;13.90;;;1.20;99.90;;;;;;5960575;24;20024;-82
2022/12/12 13:06:58;;;;;;;28.10;15.25;;;1.30;99.90;;;;;;5966134;24;20024;-81
2022/12/12 13:09:45;;;;;;;28.17;14.98;;;1.30;99.90;;;;;;5986908;23;20026;-82
2022/12/12 13:12:30;;;;;;;23.80;15.00;;;1.40;99.90;;;;;;6078719;23;20011;-81
2022/12/12 13:15:01;;;;;;;23.23;14.98;;;1.30;99.90;;;;;;6056763;23;20018;-81
2022/12/12 13:18:00;;;;;;;24.60;15.63;;;1.40;99.90;;;;;;6049123;23;20025;-82
2022/12/12 13:20:27;;;;;;;22.80;14.95;;;1.40;99.90;;;;;;6047589;23;20030;-81
2022/12/12 13:23:17;;;;;;;27.25;16.90;;;1.40;99.90;;;;;;6045414;23;20109;-82
2022/12/12 13:26:13;;;;;;;27.10;16.77;;;1.40;99.90;;;;;;6046736;23;20147;-81
2022/12/12 13:32:41;;;;;;;22.60;15.73;;;1.40;99.90;;;;;;6151957;23;20437;-82
2022/12/12 13:35:11;;;;;;;27.45;17.10;;;1.40;99.90;;;;;;6100720;23;20481;-85
2022/12/12 13:37:49;;;;;;;27.70;17.45;;;1.40;99.90;;;;;;6102929;23;20059;-86
2022/12/12 13:40:41;;;;;;;25.73;16.38;;;1.40;99.90;;;;;;6103443;23;20083;-82
2022/12/12 13:46:39;;;;;;;23.15;15.80;;;1.30;99.90;;;;;;6127616;23;20096;-80
2022/12/12 13:49:05;;;;;;;23.17;14.52;;;1.30;99.90;;;;;;6127823;23;20021;-83
2022/12/12 13:51:35;;;;;;;25.35;15.05;;;1.30;99.90;;;;;;6103391;23;20342;-84
2022/12/12 13:54:07;;;;;;;29.63;16.15;;;1.30;99.90;;;;;;6132402;23;20009;-81
2022/12/12 13:56:42;;;;;;;26.10;15.60;;;1.10;99.90;;;;;;6106910;23;20021;-82
2022/12/12 13:59:25;;;;;;;24.77;15.65;;;1.20;99.90;;;;;;6153048;23;20021;-84
2022/12/12 14:02:26;;;;;;;24.95;15.55;;;1.20;99.90;;;;;;6102502;23;20014;-84
2022/12/12 14:05:47;;;;;;;24.25;15.40;;;1.20;99.90;;;;;;6139995;23;20016;-83
2022/12/12 14:08:13;;;;;;;30.17;19.35;;;1.10;99.90;;;;;;5960981;24;20311;-82
2022/12/12 14:10:42;;;;;;;31.60;21.30;;;1.10;99.90;;;;;;5952448;24;20094;-80
2022/12/12 14:13:22;;;;;;;60.38;38.00;;;1.10;99.90;;;;;;5906217;23;20025;-83
2022/12/12 14:15:56;;;;;;;28.83;18.42;;;1.10;99.90;;;;;;5949608;24;20020;-86
2022/12/12 14:18:28;;;;;;;25.80;15.88;;;1.30;99.90;;;;;;5925104;23;20115;-82
2022/12/12 14:21:11;;;;;;;23.73;15.10;;;1.20;99.90;;;;;;5925554;24;20032;-83
2022/12/12 14:23:44;;;;;;;22.95;14.88;;;1.10;99.90;;;;;;5904829;24;20052;-86
2022/12/12 14:26:22;;;;;;;24.35;15.32;;;1.00;99.90;;;;;;5948394;24;20017;-84
2022/12/12 14:29:16;;;;;;;38.20;24.77;;;1.10;99.90;;;;;;5951597;24;20020;-82
2022/12/12 14:32:09;;;;;;;24.27;15.35;;;1.10;99.90;;;;;;5951386;24;20017;-84
2022/12/12 14:35:00;;;;;;;23.15;14.55;;;1.00;99.90;;;;;;5949649;24;20016;-83
2022/12/12 14:37:39;;;;;;;28.50;18.33;;;0.90;99.90;;;;;;5925085;24;20449;-83
2022/12/12 14:40:32;;;;;;;27.25;16.73;;;0.90;99.90;;;;;;5948035;24;20444;-81
2022/12/12 14:43:35;;;;;;;27.38;17.95;;;0.90;99.90;;;;;;5938708;23;20141;-82
2022/12/12 14:46:02;;;;;;;25.30;16.00;;;0.90;99.90;;;;;;6143203;23;20068;-82